Couvin, Belgium
Current Conditions -  °F | °C
As of 2:20 PM on Thursday 18 Dec 2014 (Local Time) from EBCI Reporting Station
Drizzle Drizzle  
Wind Chill: 52°   Ceiling: 400
Heat Index: 52°   Visibility: 2.6mi
Dew Point: 52°   Wind: 23mph
Humidity: 100%   Direction: 240°WSW
Pressure: 29.94"   Gusts: NA
Location:  50.05°N, 4.49°E
Report Text: EBCI 181320Z 24020KT 4200 -DZ BKN004 11/11 Q1014 NOSIG
Loading
Personal Weather Stations






























Interactive Weather Map New forecast layout! Learn more

10-Day Weather Forecast

Advertisements
Track Severe Weather on mobile